(°C)
(°C)
-1°
-2°
-3°
-3°
-4°
-5°
-5°
WNW
WNW
WNW
WNW
WNW
WNW
WNW
(km/h)
15-24
16-24
16-23
15-22
15-22
15-23
15-23
(mm)
0
0
0
0
0
0
0
(%)
7
0
0
1
7
13
7

Elevazione del sole

/ -15.5°
sun-icon
UV 1
06:52
17:24
Gibbosa crescente (167°)
17:19
05:06

METAR per 51.82°N 39.23°E (UUOO)

Ora Condizioni Temperatura/
Punto di rugiada
Vento Visibilità Tempo Nuvole Pressione Cambiamento Grezzo
VFR 4°C / 0°C 290º 8kt >10km - Clouds and Visibility OK 1018 No Significant change. Runway 30: Clear and dry, 1-10% contamination with <1mm, friction coefficient 0.70. UUOO 191530Z 29004MPS CAVOK 04/00 Q1018 R30/010070 NOSIG RMK QFE750
VFR 5°C / -1°C 300º 10kt >10km - Broken Clouds 4400ft 1017 No Significant change. Runway 30: Clear and dry, 1-10% contamination with <1mm, friction coefficient 0.70. UUOO 191500Z 30005MPS 9999 BKN044 05/M01 Q1017 R30/010070 NOSIG RMK QFE749
MVFR 5°C / 0°C 290º 12kt >10km - Broken Clouds 2700ft 1017 No Significant change. Runway 30: Clear and dry, 1-10% contamination with <1mm, friction coefficient 0.70. UUOO 191430Z 29006MPS 9999 BKN027 05/M00 Q1017 R30/010070 NOSIG RMK QFE749
VFR 5°C / 0°C 290º 10kt >10km - Broken Clouds 3900ft 1017 No Significant change. Runway 30: Clear and dry, 1-10% contamination with <1mm, friction coefficient 0.70. UUOO 191400Z 29005MPS 9999 BKN039 05/00 Q1017 R30/010070 NOSIG RMK QFE749
VFR 5°C / 0°C 300º 14kt >10km - Broken Clouds 3400ft 1017 No Significant change. Runway 30: Clear and dry, 1-10% contamination with <1mm, friction coefficient 0.70. UUOO 191330Z 30007MPS 9999 BKN034 05/M00 Q1017 R30/010070 NOSIG RMK QFE749
MVFR 6°C / -1°C 290º 14kt >10km - Broken Clouds 2800ft 1016 No Significant change. Runway 30: Clear and dry, 1-10% contamination with <1mm, friction coefficient 0.70. UUOO 191300Z 29007MPS 9999 BKN028 06/M01 Q1016 R30/010070 NOSIG RMK QFE749
VFR 6°C / -1°C 300º 14kt >10km - Broken Clouds 4700ft 1016 No Significant change. Runway 30: Clear and dry, 1-10% contamination with <1mm, friction coefficient 0.70. UUOO 191230Z 30007MPS 9999 BKN047 06/M01 Q1016 R30/010070 NOSIG RMK QFE748
VFR 6°C / -1°C 290º 12kt >10km - Broken Clouds 3300ft 1016 No Significant change. Runway 30: Clear and dry, 1-10% contamination with <1mm, friction coefficient 0.70. UUOO 191200Z 29006MPS 9999 BKN033 06/M01 Q1016 R30/010070 NOSIG RMK QFE748
VFR 6°C / -2°C 300º 14kt >10km - Broken Clouds 3900ft 1016 No Significant change. Runway 30: Clear and dry, 1-10% contamination with <1mm, friction coefficient 0.70. UUOO 191130Z 30007MPS 9999 BKN039 06/M02 Q1016 R30/010070 NOSIG RMK QFE748
VFR 8°C / -1°C 270º 10kt >10km - Broken Clouds 3400ft 1015 No Significant change. Runway 30: Damp, 51-100% contamination with <1mm, friction coefficient 0.65. UUOO 191100Z 27005MPS 9999 BKN034 08/M01 Q1015 R30/190065 NOSIG RMK QFE748
VFR 6°C / 0°C 300º 12kt >10km - Broken Clouds 4600ft 1016 No Significant change. Runway 30: Damp, 51-100% contamination with <1mm, friction coefficient 0.65. UUOO 191030Z 30006MPS 9999 BKN046 06/00 Q1016 R30/190065 NOSIG RMK QFE748
MVFR 7°C / 0°C 290º 10kt >10km - Broken Clouds 2200ft 1015 No Significant change. Runway 30: Damp, 51-100% contamination with <1mm, friction coefficient 0.65. UUOO 191000Z 29005MPS 9999 BKN022 07/00 Q1015 R30/190065 NOSIG RMK QFE748
MVFR 7°C / 0°C 300º 12kt >10km - Broken Clouds 2900ft 1015 No Significant change. Runway 30: Damp, 51-100% contamination with <1mm, friction coefficient 0.65. UUOO 190930Z 30006MPS 9999 BKN029 07/00 Q1015 R30/190065 NOSIG RMK QFE748
VFR 7°C / 1°C 290º 14kt >10km - Broken Clouds 4700ft 1015 No Significant change. Runway 30: Damp, 51-100% contamination with <1mm, friction coefficient 0.65. UUOO 190900Z 29007MPS 9999 BKN047 07/01 Q1015 R30/190065 NOSIG RMK QFE748
MVFR 7°C / 1°C 300º 10kt >10km - Broken Clouds 2600ft 1015 No Significant change. Runway 30: Damp, 51-100% contamination with <1mm, friction coefficient 0.65. UUOO 190830Z 30005MPS 9999 BKN026 07/01 Q1015 R30/190065 NOSIG RMK QFE748
MVFR 7°C / 1°C 300º 10kt >10km - Broken Clouds 2400ft 1015 No Significant change. Runway 30: Damp, 51-100% contamination with <1mm, friction coefficient 0.65. UUOO 190800Z 30005MPS 9999 BKN024 07/01 Q1015 R30/190065 NOSIG RMK QFE748
VFR 6°C / 2°C 300º 8kt >10km - Scattered Clouds 1300ft 1015 No Significant change. Runway 30: Damp, 51-100% contamination with <1mm, friction coefficient 0.65. UUOO 190730Z 30004MPS 9999 SCT013 06/02 Q1015 R30/190065 NOSIG RMK QFE748
VFR 5°C / 2°C 280º 10kt >10km - Clouds and Visibility OK 1015 No Significant change. Runway 30: Damp, 51-100% contamination with <1mm, friction coefficient 0.65. UUOO 190700Z 28005MPS CAVOK 05/02 Q1015 R30/190065 NOSIG RMK QFE748
VFR 5°C / 2°C 300º 10kt >10km - Clouds and Visibility OK 1015 No Significant change. Runway 30: Damp, 51-100% contamination with <1mm, friction coefficient 0.65. UUOO 190630Z 30005MPS CAVOK 05/02 Q1015 R30/190065 NOSIG RMK QFE748
VFR 4°C / 2°C 280º 8kt >10km - Scattered Clouds 4700ft 1015 No Significant change. Runway 30: Damp, 51-100% contamination with <1mm, friction coefficient 0.65. UUOO 190600Z 28004MPS 9999 SCT047 04/02 Q1015 R30/190065 NOSIG RMK QFE748
VFR 3°C / 2°C 280º 8kt >10km - Clouds and Visibility OK 1015 No Significant change. Runway 30: Damp, 51-100% contamination with <1mm, friction coefficient 0.65. UUOO 190530Z 28004MPS CAVOK 03/02 Q1015 R30/190065 NOSIG RMK QFE748
VFR 3°C / 2°C 270º 8kt >10km - Clouds and Visibility OK 1014 No Significant change. Runway 30: Damp, 51-100% contamination with <1mm, friction coefficient 0.65. UUOO 190500Z 27004MPS CAVOK 03/02 Q1014 R30/190065 NOSIG RMK QFE747
VFR 3°C / 2°C 270º 6kt >10km - Clouds and Visibility OK 1014 No Significant change. Runway 30: Wet or puddles, 51-100% contamination with 1mm, friction coefficient 0.50. UUOO 190430Z 27003MPS CAVOK 03/02 Q1014 R30/290150 NOSIG RMK QFE747
VFR 3°C / 2°C 260º 8kt >10km - Clouds and Visibility OK 1014 No Significant change. Runway 30: Wet or puddles, 51-100% contamination with 1mm, friction coefficient 0.50. UUOO 190400Z 26004MPS CAVOK 03/02 Q1014 R30/290150 NOSIG RMK QFE747

VFR

4°C / 0°C

[Più]
Vento 290º 8kt
Visibilità >10km
Tempo -
Nuvole Clouds and Visibility OK
Pressione 1018
Cambiamento No Significant change. Runway 30: Clear and dry, 1-10% contamination with <1mm, friction coefficient 0.70.
Grezzo UUOO 191530Z 29004MPS CAVOK 04/00 Q1018 R30/010070 NOSIG RMK QFE750

VFR

5°C / -1°C

[Più]
Vento 300º 10kt
Visibilità >10km
Tempo -
Nuvole Broken Clouds 4400ft
Pressione 1017
Cambiamento No Significant change. Runway 30: Clear and dry, 1-10% contamination with <1mm, friction coefficient 0.70.
Grezzo UUOO 191500Z 30005MPS 9999 BKN044 05/M01 Q1017 R30/010070 NOSIG RMK QFE749

MVFR

5°C / 0°C

[Più]
Vento 290º 12kt
Visibilità >10km
Tempo -
Nuvole Broken Clouds 2700ft
Pressione 1017
Cambiamento No Significant change. Runway 30: Clear and dry, 1-10% contamination with <1mm, friction coefficient 0.70.
Grezzo UUOO 191430Z 29006MPS 9999 BKN027 05/M00 Q1017 R30/010070 NOSIG RMK QFE749

VFR

5°C / 0°C

[Più]
Vento 290º 10kt
Visibilità >10km
Tempo -
Nuvole Broken Clouds 3900ft
Pressione 1017
Cambiamento No Significant change. Runway 30: Clear and dry, 1-10% contamination with <1mm, friction coefficient 0.70.
Grezzo UUOO 191400Z 29005MPS 9999 BKN039 05/00 Q1017 R30/010070 NOSIG RMK QFE749

VFR

5°C / 0°C

[Più]
Vento 300º 14kt
Visibilità >10km
Tempo -
Nuvole Broken Clouds 3400ft
Pressione 1017
Cambiamento No Significant change. Runway 30: Clear and dry, 1-10% contamination with <1mm, friction coefficient 0.70.
Grezzo UUOO 191330Z 30007MPS 9999 BKN034 05/M00 Q1017 R30/010070 NOSIG RMK QFE749

MVFR

6°C / -1°C

[Più]
Vento 290º 14kt
Visibilità >10km
Tempo -
Nuvole Broken Clouds 2800ft
Pressione 1016
Cambiamento No Significant change. Runway 30: Clear and dry, 1-10% contamination with <1mm, friction coefficient 0.70.
Grezzo UUOO 191300Z 29007MPS 9999 BKN028 06/M01 Q1016 R30/010070 NOSIG RMK QFE749

VFR

6°C / -1°C

[Più]
Vento 300º 14kt
Visibilità >10km
Tempo -
Nuvole Broken Clouds 4700ft
Pressione 1016
Cambiamento No Significant change. Runway 30: Clear and dry, 1-10% contamination with <1mm, friction coefficient 0.70.
Grezzo UUOO 191230Z 30007MPS 9999 BKN047 06/M01 Q1016 R30/010070 NOSIG RMK QFE748

VFR

6°C / -1°C

[Più]
Vento 290º 12kt
Visibilità >10km
Tempo -
Nuvole Broken Clouds 3300ft
Pressione 1016
Cambiamento No Significant change. Runway 30: Clear and dry, 1-10% contamination with <1mm, friction coefficient 0.70.
Grezzo UUOO 191200Z 29006MPS 9999 BKN033 06/M01 Q1016 R30/010070 NOSIG RMK QFE748

VFR

6°C / -2°C

[Più]
Vento 300º 14kt
Visibilità >10km
Tempo -
Nuvole Broken Clouds 3900ft
Pressione 1016
Cambiamento No Significant change. Runway 30: Clear and dry, 1-10% contamination with <1mm, friction coefficient 0.70.
Grezzo UUOO 191130Z 30007MPS 9999 BKN039 06/M02 Q1016 R30/010070 NOSIG RMK QFE748

VFR

8°C / -1°C

[Più]
Vento 270º 10kt
Visibilità >10km
Tempo -
Nuvole Broken Clouds 3400ft
Pressione 1015
Cambiamento No Significant change. Runway 30: Damp, 51-100% contamination with <1mm, friction coefficient 0.65.
Grezzo UUOO 191100Z 27005MPS 9999 BKN034 08/M01 Q1015 R30/190065 NOSIG RMK QFE748

VFR

6°C / 0°C

[Più]
Vento 300º 12kt
Visibilità >10km
Tempo -
Nuvole Broken Clouds 4600ft
Pressione 1016
Cambiamento No Significant change. Runway 30: Damp, 51-100% contamination with <1mm, friction coefficient 0.65.
Grezzo UUOO 191030Z 30006MPS 9999 BKN046 06/00 Q1016 R30/190065 NOSIG RMK QFE748

MVFR

7°C / 0°C

[Più]
Vento 290º 10kt
Visibilità >10km
Tempo -
Nuvole Broken Clouds 2200ft
Pressione 1015
Cambiamento No Significant change. Runway 30: Damp, 51-100% contamination with <1mm, friction coefficient 0.65.
Grezzo UUOO 191000Z 29005MPS 9999 BKN022 07/00 Q1015 R30/190065 NOSIG RMK QFE748

MVFR

7°C / 0°C

[Più]
Vento 300º 12kt
Visibilità >10km
Tempo -
Nuvole Broken Clouds 2900ft
Pressione 1015
Cambiamento No Significant change. Runway 30: Damp, 51-100% contamination with <1mm, friction coefficient 0.65.
Grezzo UUOO 190930Z 30006MPS 9999 BKN029 07/00 Q1015 R30/190065 NOSIG RMK QFE748

VFR

7°C / 1°C

[Più]
Vento 290º 14kt
Visibilità >10km
Tempo -
Nuvole Broken Clouds 4700ft
Pressione 1015
Cambiamento No Significant change. Runway 30: Damp, 51-100% contamination with <1mm, friction coefficient 0.65.
Grezzo UUOO 190900Z 29007MPS 9999 BKN047 07/01 Q1015 R30/190065 NOSIG RMK QFE748

MVFR

7°C / 1°C

[Più]
Vento 300º 10kt
Visibilità >10km
Tempo -
Nuvole Broken Clouds 2600ft
Pressione 1015
Cambiamento No Significant change. Runway 30: Damp, 51-100% contamination with <1mm, friction coefficient 0.65.
Grezzo UUOO 190830Z 30005MPS 9999 BKN026 07/01 Q1015 R30/190065 NOSIG RMK QFE748

MVFR

7°C / 1°C

[Più]
Vento 300º 10kt
Visibilità >10km
Tempo -
Nuvole Broken Clouds 2400ft
Pressione 1015
Cambiamento No Significant change. Runway 30: Damp, 51-100% contamination with <1mm, friction coefficient 0.65.
Grezzo UUOO 190800Z 30005MPS 9999 BKN024 07/01 Q1015 R30/190065 NOSIG RMK QFE748

VFR

6°C / 2°C

[Più]
Vento 300º 8kt
Visibilità >10km
Tempo -
Nuvole Scattered Clouds 1300ft
Pressione 1015
Cambiamento No Significant change. Runway 30: Damp, 51-100% contamination with <1mm, friction coefficient 0.65.
Grezzo UUOO 190730Z 30004MPS 9999 SCT013 06/02 Q1015 R30/190065 NOSIG RMK QFE748

VFR

5°C / 2°C

[Più]
Vento 280º 10kt
Visibilità >10km
Tempo -
Nuvole Clouds and Visibility OK
Pressione 1015
Cambiamento No Significant change. Runway 30: Damp, 51-100% contamination with <1mm, friction coefficient 0.65.
Grezzo UUOO 190700Z 28005MPS CAVOK 05/02 Q1015 R30/190065 NOSIG RMK QFE748

VFR

5°C / 2°C

[Più]
Vento 300º 10kt
Visibilità >10km
Tempo -
Nuvole Clouds and Visibility OK
Pressione 1015
Cambiamento No Significant change. Runway 30: Damp, 51-100% contamination with <1mm, friction coefficient 0.65.
Grezzo UUOO 190630Z 30005MPS CAVOK 05/02 Q1015 R30/190065 NOSIG RMK QFE748

VFR

4°C / 2°C

[Più]
Vento 280º 8kt
Visibilità >10km
Tempo -
Nuvole Scattered Clouds 4700ft
Pressione 1015
Cambiamento No Significant change. Runway 30: Damp, 51-100% contamination with <1mm, friction coefficient 0.65.
Grezzo UUOO 190600Z 28004MPS 9999 SCT047 04/02 Q1015 R30/190065 NOSIG RMK QFE748

VFR

3°C / 2°C

[Più]
Vento 280º 8kt
Visibilità >10km
Tempo -
Nuvole Clouds and Visibility OK
Pressione 1015
Cambiamento No Significant change. Runway 30: Damp, 51-100% contamination with <1mm, friction coefficient 0.65.
Grezzo UUOO 190530Z 28004MPS CAVOK 03/02 Q1015 R30/190065 NOSIG RMK QFE748

VFR

3°C / 2°C

[Più]
Vento 270º 8kt
Visibilità >10km
Tempo -
Nuvole Clouds and Visibility OK
Pressione 1014
Cambiamento No Significant change. Runway 30: Damp, 51-100% contamination with <1mm, friction coefficient 0.65.
Grezzo UUOO 190500Z 27004MPS CAVOK 03/02 Q1014 R30/190065 NOSIG RMK QFE747

VFR

3°C / 2°C

[Più]
Vento 270º 6kt
Visibilità >10km
Tempo -
Nuvole Clouds and Visibility OK
Pressione 1014
Cambiamento No Significant change. Runway 30: Wet or puddles, 51-100% contamination with 1mm, friction coefficient 0.50.
Grezzo UUOO 190430Z 27003MPS CAVOK 03/02 Q1014 R30/290150 NOSIG RMK QFE747

VFR

3°C / 2°C

[Più]
Vento 260º 8kt
Visibilità >10km
Tempo -
Nuvole Clouds and Visibility OK
Pressione 1014
Cambiamento No Significant change. Runway 30: Wet or puddles, 51-100% contamination with 1mm, friction coefficient 0.50.
Grezzo UUOO 190400Z 26004MPS CAVOK 03/02 Q1014 R30/290150 NOSIG RMK QFE747

TAF per 51.82°N 39.23°E (UUOO)

From till


From till Wind 310º 10kt. Visibility 10km or more. Broken Clouds 1600ft.

Grezzo: TAF UUOO 191400Z 1915/1924 31005MPS 9999 BKN016

Tempo in atto per 51.82°N 39.23°E: immagine satellitare e pioggia

Il segnaposto è situato a 51.82°N 39.23°E. [Più]

L'immagine satellitare in tempo reale combina la luce visibile durante il giorno con la radiazione infrarossa durante la notte. Di notte l'immagine non è scura poiché i raggi infrarossi possono rilevare differenze di temperatura. Purtroppo, le nuvole basse e la nebbia sono difficili da distinguere dalla temperatura del suolo e possono pertanto essere quasi invisibili durante la notte. Le immagini satellitari Meteosat per l'Europa vengono aggiornate in tempo reale ogni 5 minuti. Le immagini GOES-16 / GOES-17 (Nord e Sud America) e Himawari (Asia) vengono aggiornate ogni 10 minuti.

Copyright 2021 EUMETSAT / meteoblue. / Copyright 2021 meteoblue

Radar e nowcasting per 51.82°N 39.23°E

Pioggerella
Lieve
Moderato
Forte
Molto forte
Grandine

Il segnaposto è situato a 51.82°N 39.23°E. Questa animazione mostra il radar delle precipitazioni per l'ultima ora, nonché una previsione 1h. Drizzle or light snow fall might be invisible for the radar. Precipitation intensity is colour coded, ranging from light blue to orange.